createdAt,value
2017-04-13T00:00:32.188Z,0
2017-04-13T00:01:12.769Z,0
2017-04-13T00:01:53.346Z,0
2017-04-13T00:02:33.909Z,0
2017-04-13T00:03:14.521Z,0
2017-04-13T00:03:55.099Z,0
2017-04-13T00:04:35.678Z,0
2017-04-13T00:05:16.257Z,0
2017-04-13T00:05:56.853Z,0
2017-04-13T00:06:37.465Z,0
2017-04-13T00:07:18.171Z,0
2017-04-13T00:07:58.773Z,0
2017-04-13T00:08:39.374Z,0
2017-04-13T00:09:19.939Z,0
2017-04-13T00:10:00.550Z,0
2017-04-13T00:10:41.128Z,0
2017-04-13T00:11:21.715Z,0
2017-04-13T00:12:02.287Z,0
2017-04-13T00:12:42.869Z,0
2017-04-13T00:13:23.471Z,0
2017-04-13T00:14:04.035Z,0
2017-04-13T00:14:44.638Z,0
2017-04-13T00:15:25.192Z,0
2017-04-13T00:16:05.782Z,0
2017-04-13T00:16:46.355Z,0
2017-04-13T00:17:26.927Z,0
2017-04-13T00:18:07.548Z,0
2017-04-13T00:18:48.099Z,0
2017-04-13T00:19:28.686Z,0
2017-04-13T00:20:09.253Z,0
2017-04-13T00:20:49.835Z,0
2017-04-13T00:21:30.435Z,0
2017-04-13T00:22:11.021Z,0
2017-04-13T00:22:51.588Z,0
2017-04-13T00:23:32.165Z,0
2017-04-13T00:24:12.735Z,0
2017-04-13T00:24:53.322Z,0
2017-04-13T00:25:33.906Z,0
2017-04-13T00:26:14.493Z,0
2017-04-13T00:26:55.068Z,0
2017-04-13T00:27:35.658Z,0
2017-04-13T00:28:16.241Z,0
2017-04-13T00:28:56.817Z,0
2017-04-13T00:29:37.416Z,0
2017-04-13T00:30:18.019Z,0
2017-04-13T00:30:58.598Z,0
2017-04-13T00:31:39.184Z,0
2017-04-13T00:32:19.769Z,0
2017-04-13T00:33:00.350Z,0
2017-04-13T00:33:40.944Z,0
2017-04-13T00:34:21.539Z,0
2017-04-13T00:35:02.132Z,0
2017-04-13T00:35:42.732Z,0
2017-04-13T00:36:23.333Z,0
2017-04-13T00:37:03.930Z,0
2017-04-13T00:37:44.503Z,0
2017-04-13T00:38:25.101Z,0
2017-04-13T00:39:05.681Z,0
2017-04-13T00:39:46.270Z,0
2017-04-13T00:40:26.847Z,0
2017-04-13T00:41:07.419Z,0
2017-04-13T00:41:47.997Z,0
2017-04-13T00:42:28.590Z,0
2017-04-13T00:43:09.159Z,0
2017-04-13T00:43:49.734Z,0
2017-04-13T00:44:30.366Z,0
2017-04-13T00:45:10.949Z,0
2017-04-13T00:45:51.532Z,0
2017-04-13T00:46:32.112Z,0
2017-04-13T00:47:12.673Z,0
2017-04-13T00:47:53.255Z,0
2017-04-13T00:48:33.856Z,0
2017-04-13T00:49:14.436Z,0
2017-04-13T00:49:55.004Z,0
2017-04-13T00:50:35.576Z,0
2017-04-13T00:51:16.162Z,0
2017-04-13T00:51:56.735Z,0
2017-04-13T00:52:37.295Z,0
2017-04-13T00:53:17.877Z,0
2017-04-13T00:53:58.453Z,0
2017-04-13T00:54:39.060Z,0
2017-04-13T00:55:19.655Z,0
2017-04-13T00:56:00.224Z,0
2017-04-13T00:56:40.830Z,0
2017-04-13T00:57:21.437Z,0
2017-04-13T00:58:02.029Z,0
2017-04-13T00:58:42.609Z,0
2017-04-13T00:59:23.195Z,0
2017-04-13T01:00:03.775Z,0
2017-04-13T01:00:44.385Z,0
2017-04-13T01:01:24.935Z,0
2017-04-13T01:02:05.500Z,0
2017-04-13T01:02:46.079Z,0
2017-04-13T01:03:26.657Z,0
2017-04-13T01:04:07.264Z,0
2017-04-13T01:04:47.832Z,0
2017-04-13T01:05:28.425Z,0
2017-04-13T01:06:08.993Z,0
2017-04-13T01:06:49.557Z,0
2017-04-13T01:07:30.140Z,0
2017-04-13T01:08:10.730Z,0
2017-04-13T01:08:51.338Z,0
2017-04-13T01:09:31.920Z,0
2017-04-13T01:10:12.488Z,0
2017-04-13T01:10:53.063Z,0
2017-04-13T01:11:33.643Z,0
2017-04-13T01:12:14.217Z,0
2017-04-13T01:12:54.787Z,0
2017-04-13T01:13:35.364Z,0
2017-04-13T01:14:15.950Z,0
2017-04-13T01:14:56.560Z,0
2017-04-13T01:15:37.145Z,0
2017-04-13T01:16:17.718Z,0
2017-04-13T01:16:58.307Z,0
2017-04-13T01:17:38.900Z,0
2017-04-13T01:18:19.466Z,0
2017-04-13T01:19:00.046Z,0
2017-04-13T01:19:40.618Z,0
2017-04-13T01:20:21.203Z,0
2017-04-13T01:21:01.784Z,0
2017-04-13T01:21:42.363Z,0
2017-04-13T01:22:22.957Z,0
2017-04-13T01:23:03.552Z,0
2017-04-13T01:23:44.147Z,0
2017-04-13T01:24:24.713Z,0
2017-04-13T01:25:05.299Z,0
2017-04-13T01:25:45.932Z,0
2017-04-13T01:26:26.510Z,0
2017-04-13T01:27:07.202Z,0
2017-04-13T01:27:47.814Z,0
2017-04-13T01:28:28.381Z,0
2017-04-13T01:29:09.010Z,0
2017-04-13T01:29:49.572Z,0
2017-04-13T01:30:30.178Z,0
2017-04-13T01:31:10.773Z,0
2017-04-13T01:31:51.340Z,0
2017-04-13T01:32:31.909Z,0
2017-04-13T01:33:12.483Z,0
2017-04-13T01:33:53.077Z,0
2017-04-13T01:34:33.633Z,0
2017-04-13T01:35:14.253Z,0
2017-04-13T01:35:54.819Z,0
2017-04-13T01:36:35.401Z,0
2017-04-13T01:37:16.024Z,0
2017-04-13T01:37:56.585Z,0
2017-04-13T01:38:37.216Z,0
2017-04-13T01:39:17.787Z,0
2017-04-13T01:39:58.358Z,0
2017-04-13T01:40:38.939Z,0
2017-04-13T01:41:19.518Z,0
2017-04-13T01:42:00.111Z,0
2017-04-13T01:42:40.698Z,0
2017-04-13T01:43:21.300Z,0
2017-04-13T01:44:01.908Z,0
2017-04-13T01:44:42.479Z,0
2017-04-13T01:45:23.096Z,0
2017-04-13T01:46:03.649Z,0
2017-04-13T01:46:44.272Z,0
2017-04-13T01:47:24.876Z,0
2017-04-13T01:48:05.482Z,0
2017-04-13T01:48:46.049Z,0
2017-04-13T01:49:26.636Z,0
2017-04-13T01:50:07.230Z,0
2017-04-13T01:50:47.809Z,0
2017-04-13T01:51:28.396Z,0
2017-04-13T01:52:08.989Z,0
2017-04-13T01:52:49.576Z,0
2017-04-13T01:53:30.171Z,0
2017-04-13T01:54:10.751Z,0
2017-04-13T01:54:51.339Z,0
2017-04-13T01:55:31.942Z,0
2017-04-13T01:56:12.523Z,0
2017-04-13T01:56:53.100Z,0
2017-04-13T01:57:33.676Z,0
2017-04-13T01:58:14.243Z,0
2017-04-13T01:58:54.820Z,0
2017-04-13T01:59:35.405Z,0
2017-04-13T02:00:15.995Z,0
2017-04-13T02:00:56.577Z,0
2017-04-13T02:01:37.150Z,0
2017-04-13T02:02:17.747Z,0
2017-04-13T02:02:58.326Z,0
2017-04-13T02:03:38.900Z,0
2017-04-13T02:04:19.490Z,0
2017-04-13T02:05:00.067Z,0
2017-04-13T02:05:40.667Z,0
2017-04-13T02:06:21.263Z,0
2017-04-13T02:07:01.852Z,0
2017-04-13T02:07:42.470Z,0
2017-04-13T02:08:23.049Z,0
2017-04-13T02:09:03.640Z,0
2017-04-13T02:09:44.225Z,0
2017-04-13T02:10:24.793Z,0
2017-04-13T02:11:05.362Z,0
2017-04-13T02:11:45.992Z,0
2017-04-13T02:12:26.572Z,0
2017-04-13T02:13:07.135Z,0
2017-04-13T02:13:47.705Z,0
2017-04-13T02:14:28.292Z,0
2017-04-13T02:15:08.892Z,0
2017-04-13T02:15:49.479Z,0
2017-04-13T02:16:30.056Z,0
2017-04-13T02:17:10.637Z,0
2017-04-13T02:17:51.258Z,0
2017-04-13T02:18:32.631Z,0
2017-04-13T02:19:13.196Z,0
2017-04-13T02:19:53.765Z,0
2017-04-13T02:20:34.357Z,0
2017-04-13T02:21:14.947Z,0
2017-04-13T02:21:55.547Z,0
2017-04-13T02:22:36.159Z,0
2017-04-13T02:23:16.753Z,0
2017-04-13T02:23:57.337Z,0
2017-04-13T02:24:37.941Z,0
2017-04-13T02:25:18.507Z,0
2017-04-13T02:25:59.092Z,0
2017-04-13T02:26:39.667Z,0
2017-04-13T02:27:20.274Z,0
2017-04-13T02:28:00.852Z,0
2017-04-13T02:28:41.421Z,0
2017-04-13T02:29:22.008Z,0
2017-04-13T02:30:02.587Z,0
2017-04-13T02:30:43.186Z,0
2017-04-13T02:31:23.766Z,0
2017-04-13T02:32:04.357Z,0
2017-04-13T02:32:44.924Z,0
2017-04-13T02:33:25.511Z,0
2017-04-13T02:34:06.090Z,0
2017-04-13T02:34:46.673Z,0
2017-04-13T02:35:27.245Z,0
2017-04-13T02:36:07.815Z,0
2017-04-13T02:36:48.387Z,0
2017-04-13T02:37:28.981Z,0
2017-04-13T02:38:09.568Z,0
2017-04-13T02:38:50.154Z,0
2017-04-13T02:39:30.731Z,0
2017-04-13T02:40:11.302Z,0
2017-04-13T02:40:51.874Z,0
2017-04-13T02:41:32.486Z,0
2017-04-13T02:42:13.057Z,0
2017-04-13T02:42:53.626Z,0
2017-04-13T02:43:34.223Z,0
2017-04-13T02:44:14.811Z,0
2017-04-13T02:44:55.380Z,0
2017-04-13T02:45:36.000Z,0
2017-04-13T02:46:16.560Z,0
2017-04-13T02:46:57.132Z,0
2017-04-13T02:47:37.716Z,0
2017-04-13T02:48:18.286Z,0
2017-04-13T02:48:58.941Z,0
2017-04-13T02:49:39.554Z,0
2017-04-13T02:50:20.140Z,0
2017-04-13T02:51:00.726Z,0
2017-04-13T02:51:41.307Z,0
2017-04-13T02:52:21.903Z,0
2017-04-13T02:53:02.553Z,0
2017-04-13T02:53:43.143Z,0
2017-04-13T02:54:23.722Z,0
2017-04-13T02:55:04.306Z,0
2017-04-13T02:55:44.937Z,0
2017-04-13T02:56:25.536Z,0
2017-04-13T02:57:06.124Z,0
2017-04-13T02:57:46.692Z,0
2017-04-13T02:58:27.275Z,0
2017-04-13T02:59:07.875Z,0
2017-04-13T02:59:48.480Z,0
2017-04-13T03:00:29.087Z,0
2017-04-13T03:01:09.650Z,0
2017-04-13T03:01:50.252Z,0
2017-04-13T03:02:30.836Z,0
2017-04-13T03:03:11.402Z,0
2017-04-13T03:03:51.966Z,0
2017-04-13T03:04:32.538Z,0
2017-04-13T03:05:13.107Z,0
2017-04-13T03:05:53.693Z,0
2017-04-13T03:06:34.277Z,0
2017-04-13T03:07:14.889Z,0
2017-04-13T03:07:55.488Z,0
2017-04-13T03:08:36.049Z,0
2017-04-13T03:09:16.603Z,0
2017-04-13T03:09:57.200Z,0
2017-04-13T03:10:37.803Z,0
2017-04-13T03:11:18.387Z,0
2017-04-13T03:11:58.950Z,0
2017-04-13T03:12:39.537Z,0
2017-04-13T03:13:20.123Z,0
2017-04-13T03:14:00.702Z,0
2017-04-13T03:14:41.283Z,0
2017-04-13T03:15:21.877Z,0
2017-04-13T03:16:02.457Z,0
2017-04-13T03:16:43.026Z,0
2017-04-13T03:17:23.616Z,0
2017-04-13T03:18:04.219Z,0
2017-04-13T03:18:44.813Z,0
2017-04-13T03:19:25.388Z,0
2017-04-13T03:20:05.946Z,0
2017-04-13T03:20:46.535Z,0
2017-04-13T03:21:27.130Z,0
2017-04-13T03:22:07.711Z,0
2017-04-13T03:22:48.278Z,0
2017-04-13T03:23:28.862Z,0
2017-04-13T03:24:09.451Z,0
2017-04-13T03:24:50.029Z,0
2017-04-13T03:25:30.609Z,0
2017-04-13T03:26:11.227Z,0
2017-04-13T03:26:51.789Z,0
2017-04-13T03:27:32.352Z,0
2017-04-13T03:28:12.920Z,0
2017-04-13T03:28:53.552Z,0
2017-04-13T03:29:34.125Z,0
2017-04-13T03:30:14.693Z,0
2017-04-13T03:30:55.277Z,0
2017-04-13T03:31:35.875Z,0
2017-04-13T03:32:16.460Z,0
2017-04-13T03:32:57.044Z,0
2017-04-13T03:33:37.622Z,0
2017-04-13T03:34:18.210Z,0
2017-04-13T03:34:58.791Z,0
2017-04-13T03:35:39.405Z,0
2017-04-13T03:36:19.979Z,0
2017-04-13T03:37:00.550Z,0
2017-04-13T03:37:41.115Z,0
2017-04-13T03:38:21.702Z,0
2017-04-13T03:39:02.268Z,0
2017-04-13T03:39:42.845Z,0
2017-04-13T03:40:23.425Z,0
2017-04-13T03:41:04.034Z,0
2017-04-13T03:41:44.622Z,0
2017-04-13T03:42:25.189Z,0
2017-04-13T03:43:05.759Z,4
2017-04-13T03:43:46.372Z,4
2017-04-13T03:44:26.988Z,4
2017-04-13T03:45:07.535Z,0
2017-04-13T03:45:48.171Z,0
2017-04-13T03:46:28.715Z,4
2017-04-13T03:47:09.293Z,4
2017-04-13T03:47:49.870Z,4
2017-04-13T03:48:30.452Z,4
2017-04-13T03:49:11.040Z,4
2017-04-13T03:49:51.646Z,4
2017-04-13T03:50:32.223Z,8
2017-04-13T03:51:12.821Z,4
2017-04-13T03:51:53.398Z,8
2017-04-13T03:52:33.980Z,8
2017-04-13T03:53:14.569Z,12
2017-04-13T03:53:55.160Z,12
2017-04-13T03:54:35.730Z,12
2017-04-13T03:55:16.299Z,16
2017-04-13T03:55:56.916Z,16
2017-04-13T03:56:37.489Z,20
2017-04-13T03:57:18.104Z,20
2017-04-13T03:57:58.687Z,24
2017-04-13T03:58:39.294Z,24
2017-04-13T03:59:19.886Z,28
2017-04-13T04:00:00.486Z,32
2017-04-13T04:00:41.066Z,32
2017-04-13T04:01:21.639Z,32
2017-04-13T04:02:02.213Z,40
2017-04-13T04:02:42.802Z,44
2017-04-13T04:03:23.397Z,48
2017-04-13T04:04:03.981Z,52
2017-04-13T04:04:44.578Z,52
2017-04-13T04:05:25.149Z,52
2017-04-13T04:06:05.726Z,44
2017-04-13T04:06:46.341Z,44
2017-04-13T04:07:26.935Z,40
2017-04-13T04:10:00.391Z,60
2017-04-13T04:10:40.963Z,60
2017-04-13T04:11:21.543Z,60
2017-04-13T04:12:02.164Z,64
2017-04-13T04:12:42.760Z,64
2017-04-13T04:13:23.320Z,68
2017-04-13T04:14:03.900Z,76
2017-04-13T04:14:44.464Z,104
2017-04-13T04:15:25.028Z,128
2017-04-13T04:16:05.622Z,148
2017-04-13T04:16:46.203Z,168
2017-04-13T04:17:26.822Z,184
2017-04-13T04:18:07.431Z,196
2017-04-13T04:18:47.988Z,208
2017-04-13T04:19:28.589Z,184
2017-04-13T04:23:39.405Z,288
2017-04-13T04:24:19.965Z,304
2017-04-13T04:25:00.548Z,324
2017-04-13T04:25:41.116Z,336
2017-04-13T04:26:21.696Z,336
2017-04-13T04:27:02.271Z,340
2017-04-13T04:27:42.857Z,360
2017-04-13T04:28:23.424Z,376
2017-04-13T04:29:03.999Z,384
2017-04-13T04:29:44.612Z,348
2017-04-13T04:30:25.176Z,300
2017-04-13T04:31:05.757Z,288
2017-04-13T04:31:46.317Z,300
2017-04-13T04:32:26.884Z,348
2017-04-13T04:33:07.475Z,364
2017-04-13T04:33:48.053Z,360
2017-04-13T04:34:28.624Z,312
2017-04-13T04:35:09.196Z,244
2017-04-13T04:35:49.801Z,220
2017-04-13T04:36:30.451Z,232
2017-04-13T04:37:11.050Z,240
2017-04-13T04:37:51.639Z,240
2017-04-13T04:38:32.212Z,252
2017-04-13T04:39:12.804Z,300
2017-04-13T04:39:53.401Z,372
2017-04-13T04:40:33.986Z,332
2017-04-13T04:41:14.563Z,324
2017-04-13T04:41:55.143Z,404
2017-04-13T04:42:35.707Z,516
2017-04-13T04:43:16.288Z,664
2017-04-13T04:43:56.933Z,748
2017-04-13T04:44:37.494Z,776
2017-04-13T04:45:18.098Z,844
2017-04-13T04:45:58.716Z,864
2017-04-13T04:46:39.271Z,808
2017-04-13T04:47:19.889Z,820
2017-04-13T04:48:00.515Z,860
2017-04-13T04:48:41.089Z,860
2017-04-13T04:49:21.694Z,872
2017-04-13T04:50:02.274Z,884
2017-04-13T04:50:42.868Z,852
2017-04-13T04:51:23.445Z,932
2017-04-13T04:52:04.032Z,888
2017-04-13T04:52:44.603Z,976
2017-04-13T04:53:25.170Z,1008
2017-04-13T04:54:05.735Z,1108
2017-04-13T04:54:46.299Z,1272
2017-04-13T04:55:26.877Z,1472
2017-04-13T04:56:07.464Z,1652
2017-04-13T04:56:48.079Z,1892
2017-04-13T04:57:28.674Z,2100
2017-04-13T04:58:09.270Z,2212
2017-04-13T04:58:49.866Z,2104
2017-04-13T04:59:30.451Z,2020
2017-04-13T05:00:11.032Z,1888
2017-04-13T05:00:51.613Z,1832
2017-04-13T05:01:32.202Z,1836
2017-04-13T05:02:12.827Z,1896
2017-04-13T05:02:53.397Z,1960
2017-04-13T05:03:33.982Z,1944
2017-04-13T05:04:14.541Z,1824
2017-04-13T05:04:55.125Z,1576
2017-04-13T05:05:35.725Z,1452
2017-04-13T05:06:16.289Z,1340
2017-04-13T05:06:56.866Z,1372
2017-04-13T05:07:37.421Z,1496
2017-04-13T05:08:18.020Z,1728
2017-04-13T05:08:58.599Z,2072
2017-04-13T05:09:39.288Z,2280
2017-04-13T05:10:19.885Z,2356
2017-04-13T05:11:00.449Z,2272
2017-04-13T05:11:41.021Z,2116
2017-04-13T05:12:21.591Z,2272
2017-04-13T05:13:02.192Z,2608
2017-04-13T05:13:42.767Z,3188
2017-04-13T05:14:23.352Z,3904
2017-04-13T05:15:03.969Z,4068
2017-04-13T05:15:44.529Z,3816
2017-04-13T05:16:25.118Z,3596
2017-04-13T05:17:05.679Z,3632
2017-04-13T05:17:46.341Z,3852
2017-04-13T05:18:27.081Z,3724
2017-04-13T05:19:07.683Z,3564
2017-04-13T05:19:48.260Z,3612
2017-04-13T05:20:28.836Z,3716
2017-04-13T05:21:09.442Z,3808
2017-04-13T05:21:50.031Z,4044
2017-04-13T05:22:30.630Z,3824
2017-04-13T05:23:11.204Z,3332
2017-04-13T05:23:51.768Z,2784
2017-04-13T05:24:32.363Z,2792
2017-04-13T05:25:12.966Z,2520
2017-04-13T05:25:53.526Z,2428
2017-04-13T05:26:34.121Z,2516
2017-04-13T05:27:15.033Z,2436
2017-04-13T05:27:55.699Z,2596
2017-04-13T05:28:36.317Z,2720
2017-04-13T05:29:16.912Z,2628
2017-04-13T05:29:57.488Z,2640
2017-04-13T05:30:38.072Z,2672
2017-04-13T05:31:18.891Z,2712
2017-04-13T05:31:59.482Z,2848
2017-04-13T05:32:40.206Z,2768
2017-04-13T05:33:20.973Z,2632
2017-04-13T05:34:01.544Z,2764
2017-04-13T05:34:42.140Z,2764
2017-04-13T05:35:22.848Z,2768
2017-04-13T05:36:03.420Z,2820
2017-04-13T05:36:44.026Z,2996
2017-04-13T05:37:24.608Z,3000
2017-04-13T05:38:05.175Z,2948
2017-04-13T05:38:45.755Z,3108
2017-04-13T05:39:26.403Z,3376
2017-04-13T05:40:06.966Z,3036
2017-04-13T05:40:47.560Z,3040
2017-04-13T05:41:28.157Z,3068
2017-04-13T05:42:08.797Z,3068
2017-04-13T05:42:49.375Z,3104
2017-04-13T05:43:29.960Z,3076
2017-04-13T05:44:10.573Z,3220
2017-04-13T05:44:51.150Z,3208
2017-04-13T05:45:31.741Z,3288
2017-04-13T05:46:12.329Z,3328
2017-04-13T05:46:52.944Z,3348
2017-04-13T05:47:33.522Z,3456
2017-04-13T05:48:14.110Z,3512
2017-04-13T05:48:54.725Z,3544
2017-04-13T05:49:35.309Z,3436
2017-04-13T05:50:19.477Z,3452
2017-04-13T05:51:00.644Z,3552
2017-04-13T05:51:41.227Z,3564
2017-04-13T05:52:21.791Z,3632
2017-04-13T05:53:02.372Z,3620
2017-04-13T05:53:42.952Z,3664
2017-04-13T05:54:23.528Z,3732
2017-04-13T05:55:04.101Z,3792
2017-04-13T05:55:44.689Z,3888
2017-04-13T05:56:25.255Z,4328
2017-04-13T05:57:05.831Z,5268
2017-04-13T05:57:46.407Z,6340
2017-04-13T05:58:26.993Z,7024
2017-04-13T05:59:07.619Z,6604
2017-04-13T05:59:48.261Z,6728
2017-04-13T06:00:28.854Z,6696
2017-04-13T06:01:09.439Z,6864
2017-04-13T06:01:50.050Z,7116
2017-04-13T06:02:30.624Z,7624
2017-04-13T06:03:11.261Z,8316
2017-04-13T06:03:51.847Z,8932
2017-04-13T06:04:32.418Z,9008
2017-04-13T06:05:13.020Z,8532
2017-04-13T06:05:53.609Z,7916
2017-04-13T06:06:34.190Z,8040
2017-04-13T06:07:14.810Z,7616
2017-04-13T06:07:55.366Z,6316
2017-04-13T06:08:35.960Z,5044
2017-04-13T06:09:16.528Z,4812
2017-04-13T06:09:57.117Z,4524
2017-04-13T06:10:37.683Z,4532
2017-04-13T06:11:18.297Z,4468
2017-04-13T06:11:58.909Z,4472
2017-04-13T06:12:39.501Z,4448
2017-04-13T06:13:20.081Z,4456
2017-04-13T06:14:00.703Z,4512
2017-04-13T06:14:41.290Z,4580
2017-04-13T06:15:21.880Z,4616
2017-04-13T06:16:02.449Z,4624
2017-04-13T06:16:43.054Z,4692
2017-04-13T06:17:23.636Z,4780
2017-04-13T06:18:04.228Z,4876
2017-04-13T06:18:44.852Z,5012
2017-04-13T06:19:25.447Z,5176
2017-04-13T06:20:06.062Z,5260
2017-04-13T06:20:46.678Z,5352
2017-04-13T06:21:27.260Z,5492
2017-04-13T06:22:07.836Z,5564
2017-04-13T06:22:48.403Z,5672
2017-04-13T06:23:28.992Z,6332
2017-04-13T06:24:09.579Z,6600
2017-04-13T06:24:50.140Z,6484
2017-04-13T06:25:30.737Z,6424
2017-04-13T06:26:11.303Z,6584
2017-04-13T06:26:51.879Z,19456
2017-04-13T06:27:32.470Z,47360
2017-04-13T06:28:13.069Z,74400
2017-04-13T06:28:53.650Z,83840
2017-04-13T06:29:34.227Z,85184
2017-04-13T06:30:14.840Z,80448
2017-04-13T06:30:55.429Z,46560
2017-04-13T06:31:36.022Z,37536
2017-04-13T06:32:16.603Z,53472
2017-04-13T06:32:57.187Z,43744
2017-04-13T06:33:37.740Z,59360
2017-04-13T06:34:19.328Z,44192
2017-04-13T06:34:59.905Z,46272
2017-04-13T06:35:40.481Z,89984
2017-04-13T06:36:21.126Z,79040
2017-04-13T06:37:01.710Z,93024
2017-04-13T06:37:42.289Z,64928
2017-04-13T06:38:22.879Z,9228
2017-04-13T06:39:03.449Z,8116
2017-04-13T06:39:44.626Z,11396
2017-04-13T06:40:26.729Z,14960
2017-04-13T06:41:10.379Z,12164
2017-04-13T06:41:51.010Z,10256
2017-04-13T06:42:31.654Z,12948
2017-04-13T06:43:12.221Z,13752
2017-04-13T06:43:54.071Z,12096
2017-04-13T06:44:35.648Z,13296
2017-04-13T06:45:16.270Z,50112
2017-04-13T06:45:57.995Z,99456
2017-04-13T06:46:38.595Z,19104
2017-04-13T06:47:21.901Z,10884
2017-04-13T06:48:02.770Z,8356
2017-04-13T06:48:43.382Z,58560
2017-04-13T06:49:23.999Z,96416
2017-04-13T06:50:05.154Z,17024
2017-04-13T06:50:48.621Z,21888
2017-04-13T06:51:34.505Z,59968
2017-04-13T06:52:17.397Z,19840
2017-04-13T06:52:58.162Z,19008
2017-04-13T06:53:39.012Z,58208
2017-04-13T06:54:19.703Z,93056
2017-04-13T06:55:02.962Z,91872
2017-04-13T06:55:46.706Z,74848
2017-04-13T06:56:30.049Z,89344
2017-04-13T06:57:14.427Z,13032
2017-04-13T06:57:57.585Z,83936
2017-04-13T06:58:38.194Z,89600
2017-04-13T06:59:18.878Z,88192
2017-04-13T06:59:59.988Z,77216
2017-04-13T07:00:40.597Z,86944
2017-04-13T07:01:21.155Z,80832
2017-04-13T07:02:01.727Z,88128
2017-04-13T07:02:42.326Z,21920
2017-04-13T07:03:22.898Z,84288
2017-04-13T07:04:03.476Z,23520
2017-04-13T07:04:44.256Z,88768
2017-04-13T07:05:24.851Z,85984
2017-04-13T07:06:05.435Z,90368
2017-04-13T07:06:49.320Z,92384
2017-04-13T07:07:31.899Z,92384
2017-04-13T07:08:12.475Z,7664
2017-04-13T07:08:53.064Z,7028
2017-04-13T07:09:33.957Z,33440
2017-04-13T07:10:17.322Z,10544
2017-04-13T07:11:00.909Z,98112
2017-04-13T07:11:41.507Z,17536
2017-04-13T07:12:23.886Z,100160
2017-04-13T07:13:05.268Z,7064
2017-04-13T07:13:47.202Z,99360
2017-04-13T07:14:29.933Z,12860
2017-04-13T07:15:12.924Z,91552
2017-04-13T07:15:55.076Z,57248
2017-04-13T07:16:36.243Z,109664
2017-04-13T07:17:16.862Z,10580
2017-04-13T07:17:57.475Z,36480
2017-04-13T07:18:38.168Z,6708
2017-04-13T07:19:18.747Z,96640
2017-04-13T07:19:59.331Z,98240
2017-04-13T07:20:39.946Z,99424
2017-04-13T07:21:20.527Z,100320
2017-04-13T07:22:01.109Z,98848
2017-04-13T07:22:41.717Z,92608
2017-04-13T07:23:22.338Z,101024
2017-04-13T07:24:02.936Z,102944
2017-04-13T07:24:43.514Z,20032
2017-04-13T07:25:24.089Z,15704
2017-04-13T07:26:04.684Z,103360
2017-04-13T07:26:45.283Z,98336
2017-04-13T07:27:25.878Z,96160
2017-04-13T07:28:06.540Z,36192
2017-04-13T07:28:47.688Z,7552
2017-04-13T07:29:28.309Z,5624
2017-04-13T07:30:08.886Z,100768
2017-04-13T07:30:49.469Z,98848
2017-04-13T07:31:30.051Z,97312
2017-04-13T07:32:10.795Z,101248
2017-04-13T07:32:51.390Z,8244
2017-04-13T07:33:32.004Z,96896
2017-04-13T07:34:12.613Z,92480
2017-04-13T07:34:53.204Z,104768
2017-04-13T07:35:33.801Z,31968
2017-04-13T07:36:14.413Z,98240
2017-04-13T07:36:55.024Z,95328
2017-04-13T07:37:35.676Z,95200
2017-04-13T07:38:16.279Z,96992
2017-04-13T07:38:57.279Z,97952
2017-04-13T07:39:37.863Z,93440
2017-04-13T07:40:18.452Z,71904
2017-04-13T07:40:59.052Z,87552
2017-04-13T07:41:39.629Z,99200
2017-04-13T07:42:20.230Z,42144
2017-04-13T07:43:00.813Z,9056
2017-04-13T07:43:41.407Z,99328
2017-04-13T07:44:21.998Z,98272
2017-04-13T07:45:02.581Z,98208
2017-04-13T07:45:43.171Z,97056
2017-04-13T07:46:23.750Z,94208
2017-04-13T07:47:04.343Z,93312
2017-04-13T07:47:44.952Z,95584
2017-04-13T07:48:25.550Z,10144
2017-04-13T07:49:06.172Z,5452
2017-04-13T07:49:46.748Z,5276
2017-04-13T07:50:27.364Z,6280
2017-04-13T07:51:07.942Z,8776
2017-04-13T07:51:48.520Z,94624
2017-04-13T07:52:29.128Z,94784
2017-04-13T07:53:09.709Z,97472
2017-04-13T07:53:50.320Z,46496
2017-04-13T07:54:30.931Z,10180
2017-04-13T07:55:11.506Z,28096
2017-04-13T07:55:52.117Z,10832
2017-04-13T07:56:32.766Z,6148
2017-04-13T07:57:13.379Z,5308
2017-04-13T07:57:53.962Z,9280
2017-04-13T07:58:34.538Z,13512
2017-04-13T07:59:15.122Z,19168
2017-04-13T07:59:55.729Z,10364
2017-04-13T08:00:36.336Z,10256
2017-04-13T08:01:16.966Z,6660
2017-04-13T08:01:57.535Z,5576
2017-04-13T08:02:38.141Z,4784
2017-04-13T08:03:18.752Z,4624
2017-04-13T08:03:59.329Z,4852
2017-04-13T08:04:39.906Z,3936
2017-04-13T08:05:20.493Z,2968
2017-04-13T08:06:01.117Z,2400
2017-04-13T08:06:41.709Z,2220
2017-04-13T08:07:22.299Z,3076
2017-04-13T08:08:02.872Z,6084
2017-04-13T08:08:43.484Z,78784
2017-04-13T08:09:24.053Z,13660
2017-04-13T08:10:04.661Z,9392
2017-04-13T08:10:45.264Z,6212
2017-04-13T08:11:25.857Z,4096
2017-04-13T08:12:06.440Z,2932
2017-04-13T08:12:47.004Z,2892
2017-04-13T08:13:27.593Z,2348
2017-04-13T08:14:08.180Z,2164
2017-04-13T08:14:48.760Z,2748
2017-04-13T08:15:29.360Z,3540
2017-04-13T08:16:09.945Z,3920
2017-04-13T08:16:50.537Z,3460
2017-04-13T08:17:31.127Z,2872
2017-04-13T08:18:11.699Z,2764
2017-04-13T08:18:52.270Z,3156
2017-04-13T08:19:32.858Z,3064
2017-04-13T08:20:13.436Z,2928
2017-04-13T08:20:54.030Z,2820
2017-04-13T08:21:34.621Z,3328
2017-04-13T08:22:15.197Z,10184
2017-04-13T08:22:55.824Z,17440
2017-04-13T08:23:36.402Z,18112
2017-04-13T08:24:17.031Z,17760
2017-04-13T08:24:57.608Z,13460
2017-04-13T08:25:38.174Z,11904
2017-04-13T08:26:18.766Z,10412
2017-04-13T08:26:59.357Z,7980
2017-04-13T08:27:39.999Z,6924
2017-04-13T08:28:20.576Z,5704
2017-04-13T08:29:01.146Z,4808
2017-04-13T08:29:41.750Z,4024
2017-04-13T08:30:22.922Z,3292
2017-04-13T08:31:03.490Z,2640
2017-04-13T08:31:44.069Z,2168
2017-04-13T08:32:24.656Z,1924
2017-04-13T08:33:05.252Z,2020
2017-04-13T08:33:45.822Z,2348
2017-04-13T08:34:26.400Z,2632
2017-04-13T08:35:06.983Z,4804
2017-04-13T08:35:47.577Z,12000
2017-04-13T08:36:28.177Z,11420
2017-04-13T08:37:08.757Z,10800
2017-04-13T08:37:49.348Z,10080
2017-04-13T08:38:29.924Z,14448
2017-04-13T08:39:10.514Z,14388
2017-04-13T08:39:51.106Z,13440
2017-04-13T08:40:31.719Z,13332
2017-04-13T08:41:12.289Z,8824
2017-04-13T08:41:52.849Z,9624
2017-04-13T08:42:33.427Z,12132
2017-04-13T08:43:14.020Z,10572
2017-04-13T08:43:54.603Z,8312
2017-04-13T08:44:35.177Z,7612
2017-04-13T08:45:15.756Z,7172
2017-04-13T08:45:56.339Z,7756
2017-04-13T08:46:36.909Z,8380
2017-04-13T08:47:17.484Z,8040
2017-04-13T08:47:58.096Z,6596
2017-04-13T08:48:38.662Z,4836
2017-04-13T08:49:19.232Z,3812
2017-04-13T08:49:59.821Z,3588
2017-04-13T08:50:40.407Z,3452
2017-04-13T08:51:20.979Z,3208
2017-04-13T08:52:01.568Z,2964
2017-04-13T08:52:42.140Z,3440
2017-04-13T08:53:22.712Z,5576
2017-04-13T08:54:03.283Z,5980
2017-04-13T08:54:43.914Z,5160
2017-04-13T08:55:24.460Z,4068
2017-04-13T08:56:05.027Z,3592
2017-04-13T08:56:45.611Z,6560
2017-04-13T08:57:26.189Z,3496
2017-04-13T08:58:06.768Z,3388
2017-04-13T08:58:47.354Z,4056
2017-04-13T08:59:27.963Z,4484
2017-04-13T09:00:08.533Z,4084
2017-04-13T09:00:49.113Z,4012
2017-04-13T09:01:29.673Z,3688
2017-04-13T09:02:10.250Z,2768
2017-04-13T09:02:50.818Z,2008
2017-04-13T09:03:31.409Z,1608
2017-04-13T09:04:11.980Z,1324
2017-04-13T09:04:52.556Z,1244
2017-04-13T09:05:33.129Z,1344
2017-04-13T09:06:13.720Z,1704
2017-04-13T09:06:54.295Z,2180
2017-04-13T09:07:34.895Z,2440
2017-04-13T09:08:15.481Z,2680
2017-04-13T09:08:56.059Z,2864
2017-04-13T09:09:36.623Z,3008
2017-04-13T09:10:17.218Z,5484
2017-04-13T09:10:57.805Z,6996
2017-04-13T09:11:38.405Z,7676
2017-04-13T09:12:18.983Z,8852
2017-04-13T09:12:59.557Z,8976
2017-04-13T09:13:40.137Z,11144
2017-04-13T09:14:20.731Z,11064
2017-04-13T09:15:01.432Z,10220
2017-04-13T09:15:42.057Z,9348
2017-04-13T09:16:22.622Z,8884
2017-04-13T09:17:03.188Z,8628
2017-04-13T09:17:44.283Z,8228
2017-04-13T09:18:24.888Z,8100
2017-04-13T09:19:05.599Z,7840
2017-04-13T09:19:46.205Z,7500
2017-04-13T09:20:26.771Z,7524
2017-04-13T09:21:07.381Z,5272
2017-04-13T09:21:47.977Z,5080
2017-04-13T09:23:46.401Z,5908
2017-04-13T09:24:26.780Z,6228
2017-04-13T09:25:07.351Z,8364
2017-04-13T09:25:47.934Z,6860
2017-04-13T09:26:28.534Z,6452
2017-04-13T09:27:09.160Z,8280
2017-04-13T09:27:49.737Z,6284
2017-04-13T09:28:30.294Z,6040
2017-04-13T09:29:10.865Z,6136
2017-04-13T09:29:51.449Z,8016
2017-04-13T09:30:32.019Z,6504